Pagrindinis puslapis
METAR-TAF:

METAR-TAF

Oro uostai :

Vamdrup

Koldingas, Danija

platuma: 55-26N, ilguma: 009-20E, Aukštis: 44 m

Dabartinis oras

Ataskaita buvo paskelbta 29 minutes, ne 22:50 UTC
Vėjas 8 kt iš Rytų/Pietryčių
Temperatūra 7°C
Drėgmė 76%
Slėgis 1022 hPa

METAR: EKVD 052250Z AUTO 12008KT //// ///////// 07/03 Q1022

Laikas: 01:19 (23:19 UTC)

Prognozė

Ataskaita buvo paskelbta 14 valandos ir 4 minutes, ne 09:15 UTC
Prognozė galioja nuo 05 metu 09 UTC su 05 metu 15 UTC
Vėjas 12 kt iš Pietų/Pietryčių
Matomumas 10 km arba daugiau
nėra debesų žemiau 1500 m ir nėra kamuolinių lietaus debesų

TAF: EKVD 050915Z 0509/0515 15012KT CAVOK

Orai ataskaitas ir orų prognozės (METAR, TAF).

turimą stotys yra geltonos ir raudonos taškus žemėlapyje.

Perkelti pele per norėdami pamatyti stoties vardą.

Tada spustelėkite, norėdami matyti oro stebėjimo ir prognozės.

Norėdami pakeisti žemėlapį: spustelėkite ant žalios mygtukų su juodo kryžiaus žemyn,; žalią mygtuką su brūkšneliu, jei norite nutolinti; arba žalių rodyklių gretimoms žemėlapius.


METAR-TAF: